sensor_id;sensor_type;location;lat;lon;timestamp;P1;durP1;ratioP1;P2;durP2;ratioP2
69511;SDS011;70777;52.034;4.644;2023-08-31T00:01:09;4.43;;;2.40;;
69511;SDS011;70777;52.034;4.644;2023-08-31T00:03:35;3.85;;;2.80;;
69511;SDS011;70777;52.034;4.644;2023-08-31T00:06:01;4.70;;;2.38;;
69511;SDS011;70777;52.034;4.644;2023-08-31T00:08:28;7.22;;;2.40;;
69511;SDS011;70777;52.034;4.644;2023-08-31T00:10:55;5.57;;;2.85;;
69511;SDS011;70777;52.034;4.644;2023-08-31T00:13:21;6.55;;;2.67;;
69511;SDS011;70777;52.034;4.644;2023-08-31T00:15:47;7.35;;;2.97;;
69511;SDS011;70777;52.034;4.644;2023-08-31T00:18:12;8.52;;;2.60;;
69511;SDS011;70777;52.034;4.644;2023-08-31T00:20:37;7.93;;;2.50;;
69511;SDS011;70777;52.034;4.644;2023-08-31T00:23:03;6.45;;;2.80;;
69511;SDS011;70777;52.034;4.644;2023-08-31T00:25:29;7.38;;;2.50;;
69511;SDS011;70777;52.034;4.644;2023-08-31T00:27:54;8.45;;;2.30;;
69511;SDS011;70777;52.034;4.644;2023-08-31T00:30:20;5.32;;;1.95;;
69511;SDS011;70777;52.034;4.644;2023-08-31T00:32:45;4.82;;;1.98;;
69511;SDS011;70777;52.034;4.644;2023-08-31T00:35:12;9.95;;;2.10;;
69511;SDS011;70777;52.034;4.644;2023-08-31T00:37:38;4.30;;;1.90;;
69511;SDS011;70777;52.034;4.644;2023-08-31T00:40:03;5.35;;;2.70;;
69511;SDS011;70777;52.034;4.644;2023-08-31T00:42:30;6.90;;;1.90;;
69511;SDS011;70777;52.034;4.644;2023-08-31T00:44:55;4.70;;;1.63;;
69511;SDS011;70777;52.034;4.644;2023-08-31T00:47:21;7.40;;;2.00;;
69511;SDS011;70777;52.034;4.644;2023-08-31T00:49:47;4.50;;;2.85;;
69511;SDS011;70777;52.034;4.644;2023-08-31T00:52:13;6.35;;;1.75;;
69511;SDS011;70777;52.034;4.644;2023-08-31T00:54:38;4.82;;;1.60;;
69511;SDS011;70777;52.034;4.644;2023-08-31T00:57:04;3.38;;;1.60;;
69511;SDS011;70777;52.034;4.644;2023-08-31T00:59:29;2.63;;;1.60;;
69511;SDS011;70777;52.034;4.644;2023-08-31T01:12:50;3.33;;;1.33;;
69511;SDS011;70777;52.034;4.644;2023-08-31T01:15:17;3.83;;;1.65;;
69511;SDS011;70777;52.034;4.644;2023-08-31T01:17:50;3.05;;;1.70;;
69511;SDS011;70777;52.034;4.644;2023-08-31T01:23:18;4.55;;;1.63;;
69511;SDS011;70777;52.034;4.644;2023-08-31T01:25:44;3.33;;;1.60;;
69511;SDS011;70777;52.034;4.644;2023-08-31T01:28:11;2.93;;;2.03;;
69511;SDS011;70777;52.034;4.644;2023-08-31T01:30:37;4.57;;;1.70;;
69511;SDS011;70777;52.034;4.644;2023-08-31T01:33:02;1.55;;;1.10;;
69511;SDS011;70777;52.034;4.644;2023-08-31T01:35:28;4.88;;;1.30;;
69511;SDS011;70777;52.034;4.644;2023-08-31T01:37:58;3.40;;;1.42;;
69511;SDS011;70777;52.034;4.644;2023-08-31T01:40:31;4.53;;;1.30;;
69511;SDS011;70777;52.034;4.644;2023-08-31T01:43:01;2.95;;;1.55;;
69511;SDS011;70777;52.034;4.644;2023-08-31T01:47:53;2.00;;;1.10;;
69511;SDS011;70777;52.034;4.644;2023-08-31T01:50:21;2.40;;;1.20;;
69511;SDS011;70777;52.034;4.644;2023-08-31T01:52:46;1.80;;;1.30;;
69511;SDS011;70777;52.034;4.644;2023-08-31T01:55:12;2.08;;;1.30;;
69511;SDS011;70777;52.034;4.644;2023-08-31T01:57:40;4.30;;;1.77;;
69511;SDS011;70777;52.034;4.644;2023-08-31T02:00:10;3.35;;;1.33;;
69511;SDS011;70777;52.034;4.644;2023-08-31T02:02:36;3.90;;;1.50;;
69511;SDS011;70777;52.034;4.644;2023-08-31T02:05:02;6.07;;;2.35;;
69511;SDS011;70777;52.034;4.644;2023-08-31T02:09:54;2.03;;;1.45;;
69511;SDS011;70777;52.034;4.644;2023-08-31T02:12:20;3.75;;;1.83;;
69511;SDS011;70777;52.034;4.644;2023-08-31T02:14:45;3.42;;;1.88;;
69511;SDS011;70777;52.034;4.644;2023-08-31T02:17:11;5.28;;;1.73;;
69511;SDS011;70777;52.034;4.644;2023-08-31T02:19:36;3.00;;;1.60;;
69511;SDS011;70777;52.034;4.644;2023-08-31T02:22:01;2.97;;;1.70;;
69511;SDS011;70777;52.034;4.644;2023-08-31T02:24:27;4.65;;;1.70;;
69511;SDS011;70777;52.034;4.644;2023-08-31T02:26:52;3.45;;;2.05;;
69511;SDS011;70777;52.034;4.644;2023-08-31T02:29:18;5.45;;;1.88;;
69511;SDS011;70777;52.034;4.644;2023-08-31T02:31:43;4.50;;;1.98;;
69511;SDS011;70777;52.034;4.644;2023-08-31T02:34:10;3.65;;;2.15;;
69511;SDS011;70777;52.034;4.644;2023-08-31T02:36:35;2.95;;;2.10;;
69511;SDS011;70777;52.034;4.644;2023-08-31T02:39:01;4.32;;;2.25;;
69511;SDS011;70777;52.034;4.644;2023-08-31T02:41:28;3.83;;;1.85;;
69511;SDS011;70777;52.034;4.644;2023-08-31T02:43:54;3.05;;;2.08;;
69511;SDS011;70777;52.034;4.644;2023-08-31T02:46:19;5.57;;;2.33;;
69511;SDS011;70777;52.034;4.644;2023-08-31T02:48:45;3.80;;;2.22;;
69511;SDS011;70777;52.034;4.644;2023-08-31T02:51:11;3.53;;;2.20;;
69511;SDS011;70777;52.034;4.644;2023-08-31T02:53:36;5.05;;;2.70;;
69511;SDS011;70777;52.034;4.644;2023-08-31T02:56:02;6.03;;;3.05;;
69511;SDS011;70777;52.034;4.644;2023-08-31T02:58:27;5.82;;;3.22;;
69511;SDS011;70777;52.034;4.644;2023-08-31T03:00:53;4.03;;;2.85;;
69511;SDS011;70777;52.034;4.644;2023-08-31T03:03:19;6.32;;;3.47;;
69511;SDS011;70777;52.034;4.644;2023-08-31T03:05:44;6.63;;;3.55;;
69511;SDS011;70777;52.034;4.644;2023-08-31T03:08:10;6.30;;;4.38;;
69511;SDS011;70777;52.034;4.644;2023-08-31T03:10:36;7.95;;;4.00;;
69511;SDS011;70777;52.034;4.644;2023-08-31T03:13:03;6.93;;;4.15;;
69511;SDS011;70777;52.034;4.644;2023-08-31T03:15:29;8.75;;;4.53;;
69511;SDS011;70777;52.034;4.644;2023-08-31T03:17:54;9.38;;;4.13;;
69511;SDS011;70777;52.034;4.644;2023-08-31T03:20:19;6.50;;;4.03;;
69511;SDS011;70777;52.034;4.644;2023-08-31T03:22:45;10.18;;;4.18;;
69511;SDS011;70777;52.034;4.644;2023-08-31T03:25:11;7.82;;;3.78;;
69511;SDS011;70777;52.034;4.644;2023-08-31T03:27:36;8.20;;;3.90;;
69511;SDS011;70777;52.034;4.644;2023-08-31T03:30:01;7.05;;;3.35;;
69511;SDS011;70777;52.034;4.644;2023-08-31T03:32:28;6.72;;;3.28;;
69511;SDS011;70777;52.034;4.644;2023-08-31T03:34:54;6.03;;;3.38;;
69511;SDS011;70777;52.034;4.644;2023-08-31T03:37:19;7.65;;;3.45;;
69511;SDS011;70777;52.034;4.644;2023-08-31T03:39:47;5.93;;;3.28;;
69511;SDS011;70777;52.034;4.644;2023-08-31T03:42:13;6.00;;;3.33;;
69511;SDS011;70777;52.034;4.644;2023-08-31T03:44:38;8.18;;;3.03;;
69511;SDS011;70777;52.034;4.644;2023-08-31T03:47:03;4.93;;;2.97;;
69511;SDS011;70777;52.034;4.644;2023-08-31T03:49:29;8.00;;;2.55;;
69511;SDS011;70777;52.034;4.644;2023-08-31T03:54:21;9.55;;;3.13;;
69511;SDS011;70777;52.034;4.644;2023-08-31T03:56:47;7.80;;;2.70;;
69511;SDS011;70777;52.034;4.644;2023-08-31T03:59:12;8.73;;;2.88;;
69511;SDS011;70777;52.034;4.644;2023-08-31T04:01:38;7.63;;;2.30;;
69511;SDS011;70777;52.034;4.644;2023-08-31T04:04:03;6.95;;;2.70;;
69511;SDS011;70777;52.034;4.644;2023-08-31T04:06:29;5.88;;;2.50;;
69511;SDS011;70777;52.034;4.644;2023-08-31T04:08:55;5.95;;;2.58;;
69511;SDS011;70777;52.034;4.644;2023-08-31T04:11:20;3.63;;;1.98;;
69511;SDS011;70777;52.034;4.644;2023-08-31T04:13:46;8.90;;;2.60;;
69511;SDS011;70777;52.034;4.644;2023-08-31T04:16:11;5.40;;;2.45;;
69511;SDS011;70777;52.034;4.644;2023-08-31T04:18:37;8.70;;;2.30;;
69511;SDS011;70777;52.034;4.644;2023-08-31T04:21:03;5.78;;;2.10;;
69511;SDS011;70777;52.034;4.644;2023-08-31T04:23:28;6.32;;;1.80;;
69511;SDS011;70777;52.034;4.644;2023-08-31T04:25:54;5.00;;;1.75;;
69511;SDS011;70777;52.034;4.644;2023-08-31T04:28:19;5.32;;;2.28;;
69511;SDS011;70777;52.034;4.644;2023-08-31T04:30:45;4.97;;;2.20;;
69511;SDS011;70777;52.034;4.644;2023-08-31T04:33:10;3.20;;;1.80;;
69511;SDS011;70777;52.034;4.644;2023-08-31T04:35:35;3.15;;;1.80;;
69511;SDS011;70777;52.034;4.644;2023-08-31T04:38:01;7.13;;;2.17;;
69511;SDS011;70777;52.034;4.644;2023-08-31T04:40:27;6.28;;;2.00;;
69511;SDS011;70777;52.034;4.644;2023-08-31T04:42:53;6.00;;;1.73;;
69511;SDS011;70777;52.034;4.644;2023-08-31T04:45:19;6.28;;;1.75;;
69511;SDS011;70777;52.034;4.644;2023-08-31T04:47:44;4.43;;;1.67;;
69511;SDS011;70777;52.034;4.644;2023-08-31T04:50:10;5.75;;;2.08;;
69511;SDS011;70777;52.034;4.644;2023-08-31T04:52:35;3.72;;;1.58;;
69511;SDS011;70777;52.034;4.644;2023-08-31T04:55:01;3.17;;;1.60;;
69511;SDS011;70777;52.034;4.644;2023-08-31T04:57:30;3.80;;;1.48;;
69511;SDS011;70777;52.034;4.644;2023-08-31T04:59:55;12.13;;;1.83;;
69511;SDS011;70777;52.034;4.644;2023-08-31T05:02:21;5.47;;;1.85;;
69511;SDS011;70777;52.034;4.644;2023-08-31T05:04:47;5.78;;;1.50;;
69511;SDS011;70777;52.034;4.644;2023-08-31T05:07:13;2.22;;;1.50;;
69511;SDS011;70777;52.034;4.644;2023-08-31T05:09:38;3.63;;;1.42;;
69511;SDS011;70777;52.034;4.644;2023-08-31T05:12:04;4.32;;;1.60;;
69511;SDS011;70777;52.034;4.644;2023-08-31T05:14:30;4.55;;;1.60;;
69511;SDS011;70777;52.034;4.644;2023-08-31T05:16:55;6.85;;;1.63;;
69511;SDS011;70777;52.034;4.644;2023-08-31T05:19:24;2.42;;;1.40;;
69511;SDS011;70777;52.034;4.644;2023-08-31T05:21:49;6.97;;;2.83;;
69511;SDS011;70777;52.034;4.644;2023-08-31T05:24:15;2.65;;;1.52;;
69511;SDS011;70777;52.034;4.644;2023-08-31T05:26:40;4.53;;;1.55;;
69511;SDS011;70777;52.034;4.644;2023-08-31T05:29:06;11.73;;;2.88;;
69511;SDS011;70777;52.034;4.644;2023-08-31T05:31:31;3.28;;;1.60;;
69511;SDS011;70777;52.034;4.644;2023-08-31T05:33:57;4.05;;;1.73;;
69511;SDS011;70777;52.034;4.644;2023-08-31T05:36:23;6.97;;;1.70;;
69511;SDS011;70777;52.034;4.644;2023-08-31T05:38:51;5.75;;;2.08;;
69511;SDS011;70777;52.034;4.644;2023-08-31T05:41:18;5.10;;;1.92;;
69511;SDS011;70777;52.034;4.644;2023-08-31T05:43:43;6.22;;;2.25;;
69511;SDS011;70777;52.034;4.644;2023-08-31T05:46:10;7.18;;;1.70;;
69511;SDS011;70777;52.034;4.644;2023-08-31T05:48:36;5.82;;;1.65;;
69511;SDS011;70777;52.034;4.644;2023-08-31T05:51:02;5.57;;;2.00;;
69511;SDS011;70777;52.034;4.644;2023-08-31T05:53:29;4.75;;;2.10;;
69511;SDS011;70777;52.034;4.644;2023-08-31T05:55:55;6.37;;;1.90;;
69511;SDS011;70777;52.034;4.644;2023-08-31T05:58:28;4.38;;;1.73;;
69511;SDS011;70777;52.034;4.644;2023-08-31T06:00:55;2.72;;;1.80;;
69511;SDS011;70777;52.034;4.644;2023-08-31T06:03:23;4.85;;;2.47;;
69511;SDS011;70777;52.034;4.644;2023-08-31T06:05:49;4.55;;;2.05;;
69511;SDS011;70777;52.034;4.644;2023-08-31T06:08:15;9.80;;;3.00;;
69511;SDS011;70777;52.034;4.644;2023-08-31T06:10:40;8.05;;;2.35;;
69511;SDS011;70777;52.034;4.644;2023-08-31T06:13:06;5.32;;;2.30;;
69511;SDS011;70777;52.034;4.644;2023-08-31T06:15:32;7.68;;;2.72;;
69511;SDS011;70777;52.034;4.644;2023-08-31T06:18:06;6.13;;;2.22;;
69511;SDS011;70777;52.034;4.644;2023-08-31T06:20:32;7.47;;;2.83;;
69511;SDS011;70777;52.034;4.644;2023-08-31T06:22:59;5.15;;;2.20;;
69511;SDS011;70777;52.034;4.644;2023-08-31T06:25:27;12.40;;;4.13;;
69511;SDS011;70777;52.034;4.644;2023-08-31T06:27:53;6.07;;;2.78;;
69511;SDS011;70777;52.034;4.644;2023-08-31T06:30:18;3.90;;;1.95;;
69511;SDS011;70777;52.034;4.644;2023-08-31T06:32:45;2.80;;;1.52;;
69511;SDS011;70777;52.034;4.644;2023-08-31T06:35:12;4.97;;;1.67;;
69511;SDS011;70777;52.034;4.644;2023-08-31T06:37:41;5.80;;;1.60;;
69511;SDS011;70777;52.034;4.644;2023-08-31T06:40:07;7.13;;;1.92;;
69511;SDS011;70777;52.034;4.644;2023-08-31T06:42:34;4.40;;;1.30;;
69511;SDS011;70777;52.034;4.644;2023-08-31T06:45:04;7.40;;;1.40;;
69511;SDS011;70777;52.034;4.644;2023-08-31T06:47:33;2.65;;;1.40;;
69511;SDS011;70777;52.034;4.644;2023-08-31T06:49:59;6.03;;;1.33;;
69511;SDS011;70777;52.034;4.644;2023-08-31T06:52:27;3.05;;;1.20;;
69511;SDS011;70777;52.034;4.644;2023-08-31T06:54:53;3.67;;;1.10;;
69511;SDS011;70777;52.034;4.644;2023-08-31T06:57:22;4.97;;;0.90;;
69511;SDS011;70777;52.034;4.644;2023-08-31T06:59:48;6.60;;;1.48;;
69511;SDS011;70777;52.034;4.644;2023-08-31T07:02:14;6.53;;;1.50;;
69511;SDS011;70777;52.034;4.644;2023-08-31T07:04:40;4.30;;;1.10;;
69511;SDS011;70777;52.034;4.644;2023-08-31T07:07:06;4.18;;;1.27;;
69511;SDS011;70777;52.034;4.644;2023-08-31T07:09:34;6.00;;;1.45;;
69511;SDS011;70777;52.034;4.644;2023-08-31T07:12:06;7.10;;;1.10;;
69511;SDS011;70777;52.034;4.644;2023-08-31T07:14:31;3.00;;;1.25;;
69511;SDS011;70777;52.034;4.644;2023-08-31T07:16:58;5.53;;;0.82;;
69511;SDS011;70777;52.034;4.644;2023-08-31T07:19:23;3.00;;;0.97;;
69511;SDS011;70777;52.034;4.644;2023-08-31T07:21:49;3.17;;;0.63;;
69511;SDS011;70777;52.034;4.644;2023-08-31T07:24:15;3.00;;;0.70;;
69511;SDS011;70777;52.034;4.644;2023-08-31T07:26:40;2.87;;;0.53;;
69511;SDS011;70777;52.034;4.644;2023-08-31T07:29:08;2.17;;;0.65;;
69511;SDS011;70777;52.034;4.644;2023-08-31T07:31:34;3.53;;;0.73;;
69511;SDS011;70777;52.034;4.644;2023-08-31T07:34:02;2.08;;;0.70;;
69511;SDS011;70777;52.034;4.644;2023-08-31T07:36:31;3.38;;;0.68;;
69511;SDS011;70777;52.034;4.644;2023-08-31T07:39:02;4.05;;;0.90;;
69511;SDS011;70777;52.034;4.644;2023-08-31T07:41:29;4.20;;;0.70;;
69511;SDS011;70777;52.034;4.644;2023-08-31T07:43:55;2.63;;;0.97;;
69511;SDS011;70777;52.034;4.644;2023-08-31T07:46:27;2.97;;;0.60;;
69511;SDS011;70777;52.034;4.644;2023-08-31T07:49:01;1.58;;;0.70;;
69511;SDS011;70777;52.034;4.644;2023-08-31T07:51:28;4.90;;;0.90;;
69511;SDS011;70777;52.034;4.644;2023-08-31T07:53:56;3.53;;;0.90;;
69511;SDS011;70777;52.034;4.644;2023-08-31T07:56:43;4.40;;;0.60;;
69511;SDS011;70777;52.034;4.644;2023-08-31T08:01:37;3.72;;;0.70;;
69511;SDS011;70777;52.034;4.644;2023-08-31T08:04:06;3.30;;;0.82;;
69511;SDS011;70777;52.034;4.644;2023-08-31T08:06:40;4.47;;;0.70;;
69511;SDS011;70777;52.034;4.644;2023-08-31T08:09:06;3.70;;;0.80;;
69511;SDS011;70777;52.034;4.644;2023-08-31T08:11:37;3.17;;;0.95;;
69511;SDS011;70777;52.034;4.644;2023-08-31T08:14:03;2.72;;;0.80;;
69511;SDS011;70777;52.034;4.644;2023-08-31T08:16:28;2.78;;;0.90;;
69511;SDS011;70777;52.034;4.644;2023-08-31T08:18:54;2.95;;;0.85;;
69511;SDS011;70777;52.034;4.644;2023-08-31T08:21:20;4.97;;;0.80;;
69511;SDS011;70777;52.034;4.644;2023-08-31T08:23:46;4.97;;;1.13;;
69511;SDS011;70777;52.034;4.644;2023-08-31T08:26:11;1.90;;;0.53;;
69511;SDS011;70777;52.034;4.644;2023-08-31T08:28:37;2.57;;;0.90;;
69511;SDS011;70777;52.034;4.644;2023-08-31T08:31:08;3.10;;;0.70;;
69511;SDS011;70777;52.034;4.644;2023-08-31T08:33:37;2.47;;;0.68;;
69511;SDS011;70777;52.034;4.644;2023-08-31T08:36:05;2.50;;;0.80;;
69511;SDS011;70777;52.034;4.644;2023-08-31T08:38:31;5.57;;;1.08;;
69511;SDS011;70777;52.034;4.644;2023-08-31T08:40:57;2.60;;;0.73;;
69511;SDS011;70777;52.034;4.644;2023-08-31T08:43:29;1.95;;;0.60;;
69511;SDS011;70777;52.034;4.644;2023-08-31T08:46:07;8.15;;;1.15;;
69511;SDS011;70777;52.034;4.644;2023-08-31T08:48:34;2.17;;;0.90;;
69511;SDS011;70777;52.034;4.644;2023-08-31T08:51:05;4.70;;;1.20;;
69511;SDS011;70777;52.034;4.644;2023-08-31T08:53:34;3.25;;;0.80;;
69511;SDS011;70777;52.034;4.644;2023-08-31T08:56:00;3.38;;;0.85;;
69511;SDS011;70777;52.034;4.644;2023-08-31T08:58:26;3.63;;;0.60;;
69511;SDS011;70777;52.034;4.644;2023-08-31T09:00:52;3.85;;;1.10;;
69511;SDS011;70777;52.034;4.644;2023-08-31T09:03:20;4.07;;;1.05;;
69511;SDS011;70777;52.034;4.644;2023-08-31T09:05:46;3.07;;;0.83;;
69511;SDS011;70777;52.034;4.644;2023-08-31T09:08:12;1.52;;;0.55;;
69511;SDS011;70777;52.034;4.644;2023-08-31T09:10:39;2.53;;;0.88;;
69511;SDS011;70777;52.034;4.644;2023-08-31T09:13:09;4.05;;;0.85;;
69511;SDS011;70777;52.034;4.644;2023-08-31T09:15:48;2.60;;;0.60;;
69511;SDS011;70777;52.034;4.644;2023-08-31T09:18:14;5.57;;;0.90;;
69511;SDS011;70777;52.034;4.644;2023-08-31T09:20:44;4.03;;;0.70;;
69511;SDS011;70777;52.034;4.644;2023-08-31T09:23:11;1.42;;;0.73;;
69511;SDS011;70777;52.034;4.644;2023-08-31T09:25:40;2.20;;;0.70;;
69511;SDS011;70777;52.034;4.644;2023-08-31T09:28:16;3.47;;;0.80;;
69511;SDS011;70777;52.034;4.644;2023-08-31T09:30:45;1.70;;;0.80;;
69511;SDS011;70777;52.034;4.644;2023-08-31T09:33:14;2.45;;;0.80;;
69511;SDS011;70777;52.034;4.644;2023-08-31T09:35:51;2.72;;;0.95;;
69511;SDS011;70777;52.034;4.644;2023-08-31T09:38:18;1.92;;;0.60;;
69511;SDS011;70777;52.034;4.644;2023-08-31T09:40:43;2.92;;;0.60;;
69511;SDS011;70777;52.034;4.644;2023-08-31T09:43:09;1.98;;;0.70;;
69511;SDS011;70777;52.034;4.644;2023-08-31T09:45:35;2.78;;;0.63;;
69511;SDS011;70777;52.034;4.644;2023-08-31T09:48:02;3.70;;;0.88;;
69511;SDS011;70777;52.034;4.644;2023-08-31T09:50:29;3.70;;;0.80;;
69511;SDS011;70777;52.034;4.644;2023-08-31T09:53:04;2.65;;;0.77;;
69511;SDS011;70777;52.034;4.644;2023-08-31T09:55:31;4.10;;;0.82;;
69511;SDS011;70777;52.034;4.644;2023-08-31T09:58:07;4.88;;;0.82;;
69511;SDS011;70777;52.034;4.644;2023-08-31T10:03:01;2.75;;;0.75;;
69511;SDS011;70777;52.034;4.644;2023-08-31T10:05:29;1.63;;;0.60;;
69511;SDS011;70777;52.034;4.644;2023-08-31T10:07:56;3.92;;;0.63;;
69511;SDS011;70777;52.034;4.644;2023-08-31T10:10:23;4.38;;;0.90;;
69511;SDS011;70777;52.034;4.644;2023-08-31T10:12:52;2.65;;;0.70;;
69511;SDS011;70777;52.034;4.644;2023-08-31T10:15:18;3.42;;;0.80;;
69511;SDS011;70777;52.034;4.644;2023-08-31T10:17:44;1.98;;;0.70;;
69511;SDS011;70777;52.034;4.644;2023-08-31T10:20:16;3.33;;;0.80;;
69511;SDS011;70777;52.034;4.644;2023-08-31T10:22:42;1.75;;;0.80;;
69511;SDS011;70777;52.034;4.644;2023-08-31T10:25:08;2.15;;;0.73;;
69511;SDS011;70777;52.034;4.644;2023-08-31T10:33:33;2.60;;;0.68;;
69511;SDS011;70777;52.034;4.644;2023-08-31T10:35:40;1.42;;;0.70;;
69511;SDS011;70777;52.034;4.644;2023-08-31T10:38:23;2.58;;;0.75;;
69511;SDS011;70777;52.034;4.644;2023-08-31T10:46:16;4.20;;;0.88;;
69511;SDS011;70777;52.034;4.644;2023-08-31T10:48:51;2.88;;;0.85;;
69511;SDS011;70777;52.034;4.644;2023-08-31T10:51:27;3.75;;;0.80;;
69511;SDS011;70777;52.034;4.644;2023-08-31T10:54:30;2.85;;;0.70;;
69511;SDS011;70777;52.034;4.644;2023-08-31T11:02:27;4.10;;;0.90;;
69511;SDS011;70777;52.034;4.644;2023-08-31T11:07:39;1.42;;;0.40;;
69511;SDS011;70777;52.034;4.644;2023-08-31T11:10:13;1.20;;;0.55;;
69511;SDS011;70777;52.034;4.644;2023-08-31T11:12:39;1.20;;;0.50;;
69511;SDS011;70777;52.034;4.644;2023-08-31T11:15:10;2.00;;;0.63;;
69511;SDS011;70777;52.034;4.644;2023-08-31T11:17:37;3.17;;;0.70;;
69511;SDS011;70777;52.034;4.644;2023-08-31T11:20:05;3.42;;;0.98;;
69511;SDS011;70777;52.034;4.644;2023-08-31T11:22:31;2.03;;;0.73;;
69511;SDS011;70777;52.034;4.644;2023-08-31T11:24:58;2.70;;;0.98;;
69511;SDS011;70777;52.034;4.644;2023-08-31T11:27:24;2.53;;;0.70;;
69511;SDS011;70777;52.034;4.644;2023-08-31T11:29:50;3.35;;;0.68;;
69511;SDS011;70777;52.034;4.644;2023-08-31T11:32:16;0.97;;;0.47;;
69511;SDS011;70777;52.034;4.644;2023-08-31T11:34:42;4.27;;;0.80;;
69511;SDS011;70777;52.034;4.644;2023-08-31T11:37:09;4.00;;;1.10;;
69511;SDS011;70777;52.034;4.644;2023-08-31T11:39:36;3.38;;;0.90;;
69511;SDS011;70777;52.034;4.644;2023-08-31T11:42:11;1.15;;;0.60;;
69511;SDS011;70777;52.034;4.644;2023-08-31T11:44:37;3.20;;;0.77;;
69511;SDS011;70777;52.034;4.644;2023-08-31T11:47:02;1.20;;;0.57;;
69511;SDS011;70777;52.034;4.644;2023-08-31T11:49:28;2.97;;;0.83;;
69511;SDS011;70777;52.034;4.644;2023-08-31T11:51:54;2.77;;;0.80;;
69511;SDS011;70777;52.034;4.644;2023-08-31T11:54:20;1.57;;;0.70;;
69511;SDS011;70777;52.034;4.644;2023-08-31T11:56:49;2.28;;;0.68;;
69511;SDS011;70777;52.034;4.644;2023-08-31T11:59:17;1.08;;;0.63;;
69511;SDS011;70777;52.034;4.644;2023-08-31T12:01:48;2.30;;;0.77;;
69511;SDS011;70777;52.034;4.644;2023-08-31T12:04:15;1.55;;;0.80;;
69511;SDS011;70777;52.034;4.644;2023-08-31T12:06:51;5.50;;;0.85;;
69511;SDS011;70777;52.034;4.644;2023-08-31T12:09:17;3.08;;;0.80;;
69511;SDS011;70777;52.034;4.644;2023-08-31T12:11:50;3.30;;;0.88;;
69511;SDS011;70777;52.034;4.644;2023-08-31T12:14:25;1.25;;;0.70;;
69511;SDS011;70777;52.034;4.644;2023-08-31T12:16:52;1.83;;;0.77;;
69511;SDS011;70777;52.034;4.644;2023-08-31T12:19:18;1.60;;;0.70;;
69511;SDS011;70777;52.034;4.644;2023-08-31T12:21:44;3.07;;;0.90;;
69511;SDS011;70777;52.034;4.644;2023-08-31T12:24:11;3.15;;;0.85;;
69511;SDS011;70777;52.034;4.644;2023-08-31T12:26:42;2.58;;;0.90;;
69511;SDS011;70777;52.034;4.644;2023-08-31T12:29:13;2.67;;;0.70;;
69511;SDS011;70777;52.034;4.644;2023-08-31T12:31:38;2.83;;;0.90;;
69511;SDS011;70777;52.034;4.644;2023-08-31T12:34:04;4.43;;;0.93;;
69511;SDS011;70777;52.034;4.644;2023-08-31T12:36:34;2.20;;;0.80;;
69511;SDS011;70777;52.034;4.644;2023-08-31T12:39:02;2.80;;;0.77;;
69511;SDS011;70777;52.034;4.644;2023-08-31T12:41:31;2.20;;;0.77;;
69511;SDS011;70777;52.034;4.644;2023-08-31T12:43:58;2.90;;;0.85;;
69511;SDS011;70777;52.034;4.644;2023-08-31T12:46:24;3.40;;;0.70;;
69511;SDS011;70777;52.034;4.644;2023-08-31T12:48:50;6.80;;;0.90;;
69511;SDS011;70777;52.034;4.644;2023-08-31T12:51:16;3.30;;;0.98;;
69511;SDS011;70777;52.034;4.644;2023-08-31T12:53:43;2.45;;;0.80;;
69511;SDS011;70777;52.034;4.644;2023-08-31T12:56:08;2.10;;;0.53;;
69511;SDS011;70777;52.034;4.644;2023-08-31T12:58:34;1.63;;;0.80;;
69511;SDS011;70777;52.034;4.644;2023-08-31T13:00:59;2.57;;;0.83;;
69511;SDS011;70777;52.034;4.644;2023-08-31T13:03:25;3.20;;;0.93;;
69511;SDS011;70777;52.034;4.644;2023-08-31T13:05:51;4.97;;;0.70;;
69511;SDS011;70777;52.034;4.644;2023-08-31T13:08:19;2.25;;;0.73;;
69511;SDS011;70777;52.034;4.644;2023-08-31T13:10:54;1.53;;;0.70;;
69511;SDS011;70777;52.034;4.644;2023-08-31T13:13:20;2.85;;;0.90;;
69511;SDS011;70777;52.034;4.644;2023-08-31T13:15:47;2.40;;;0.80;;
69511;SDS011;70777;52.034;4.644;2023-08-31T13:18:13;1.67;;;0.60;;
69511;SDS011;70777;52.034;4.644;2023-08-31T13:20:39;2.13;;;0.80;;
69511;SDS011;70777;52.034;4.644;2023-08-31T13:23:04;3.37;;;0.70;;
69511;SDS011;70777;52.034;4.644;2023-08-31T13:25:30;2.97;;;0.93;;
69511;SDS011;70777;52.034;4.644;2023-08-31T13:27:56;2.45;;;0.70;;
69511;SDS011;70777;52.034;4.644;2023-08-31T13:30:25;2.37;;;0.70;;
69511;SDS011;70777;52.034;4.644;2023-08-31T13:32:51;4.32;;;0.90;;
69511;SDS011;70777;52.034;4.644;2023-08-31T13:35:16;3.70;;;1.10;;
69511;SDS011;70777;52.034;4.644;2023-08-31T13:37:42;3.37;;;1.20;;
69511;SDS011;70777;52.034;4.644;2023-08-31T13:40:07;1.83;;;0.80;;
69511;SDS011;70777;52.034;4.644;2023-08-31T13:42:34;3.70;;;0.82;;
69511;SDS011;70777;52.034;4.644;2023-08-31T13:45:04;2.47;;;0.70;;
69511;SDS011;70777;52.034;4.644;2023-08-31T13:47:31;2.33;;;0.70;;
69511;SDS011;70777;52.034;4.644;2023-08-31T13:49:57;3.00;;;0.80;;
69511;SDS011;70777;52.034;4.644;2023-08-31T13:52:22;5.00;;;0.87;;
69511;SDS011;70777;52.034;4.644;2023-08-31T13:54:48;5.97;;;1.13;;
69511;SDS011;70777;52.034;4.644;2023-08-31T13:57:14;2.10;;;0.87;;
69511;SDS011;70777;52.034;4.644;2023-08-31T13:59:42;2.20;;;0.70;;
69511;SDS011;70777;52.034;4.644;2023-08-31T14:04:34;2.15;;;0.77;;
69511;SDS011;70777;52.034;4.644;2023-08-31T14:07:00;2.90;;;0.93;;
69511;SDS011;70777;52.034;4.644;2023-08-31T14:09:26;2.42;;;0.90;;
69511;SDS011;70777;52.034;4.644;2023-08-31T14:14:19;3.47;;;0.98;;
69511;SDS011;70777;52.034;4.644;2023-08-31T14:16:46;2.22;;;0.90;;
69511;SDS011;70777;52.034;4.644;2023-08-31T14:19:13;2.25;;;0.98;;
69511;SDS011;70777;52.034;4.644;2023-08-31T14:21:38;2.97;;;0.90;;
69511;SDS011;70777;52.034;4.644;2023-08-31T14:24:04;3.53;;;0.80;;
69511;SDS011;70777;52.034;4.644;2023-08-31T14:26:36;2.70;;;1.00;;
69511;SDS011;70777;52.034;4.644;2023-08-31T14:29:01;2.58;;;0.90;;
69511;SDS011;70777;52.034;4.644;2023-08-31T14:31:27;3.80;;;1.00;;
69511;SDS011;70777;52.034;4.644;2023-08-31T14:33:52;3.97;;;1.17;;
69511;SDS011;70777;52.034;4.644;2023-08-31T14:36:19;3.50;;;1.13;;
69511;SDS011;70777;52.034;4.644;2023-08-31T14:38:44;6.13;;;0.93;;
69511;SDS011;70777;52.034;4.644;2023-08-31T14:41:13;3.20;;;1.35;;
69511;SDS011;70777;52.034;4.644;2023-08-31T14:43:39;3.97;;;0.90;;
69511;SDS011;70777;52.034;4.644;2023-08-31T14:46:05;3.47;;;0.93;;
69511;SDS011;70777;52.034;4.644;2023-08-31T14:48:31;3.17;;;0.90;;
69511;SDS011;70777;52.034;4.644;2023-08-31T14:50:57;3.17;;;1.10;;
69511;SDS011;70777;52.034;4.644;2023-08-31T14:53:47;3.72;;;1.00;;
69511;SDS011;70777;52.034;4.644;2023-08-31T14:56:13;2.67;;;1.10;;
69511;SDS011;70777;52.034;4.644;2023-08-31T14:58:38;2.43;;;0.83;;
69511;SDS011;70777;52.034;4.644;2023-08-31T15:01:04;6.50;;;1.00;;
69511;SDS011;70777;52.034;4.644;2023-08-31T15:03:30;4.37;;;0.97;;
69511;SDS011;70777;52.034;4.644;2023-08-31T15:05:58;3.13;;;0.80;;
69511;SDS011;70777;52.034;4.644;2023-08-31T15:08:34;1.77;;;0.82;;
69511;SDS011;70777;52.034;4.644;2023-08-31T15:11:06;1.98;;;0.90;;
69511;SDS011;70777;52.034;4.644;2023-08-31T15:13:32;5.43;;;1.02;;
69511;SDS011;70777;52.034;4.644;2023-08-31T15:15:57;3.80;;;1.00;;
69511;SDS011;70777;52.034;4.644;2023-08-31T15:18:26;2.13;;;0.73;;
69511;SDS011;70777;52.034;4.644;2023-08-31T15:20:52;4.43;;;1.00;;
69511;SDS011;70777;52.034;4.644;2023-08-31T15:23:18;2.63;;;1.00;;
69511;SDS011;70777;52.034;4.644;2023-08-31T15:25:44;3.60;;;1.30;;
69511;SDS011;70777;52.034;4.644;2023-08-31T15:28:10;2.77;;;0.90;;
69511;SDS011;70777;52.034;4.644;2023-08-31T15:30:35;4.37;;;0.80;;
69511;SDS011;70777;52.034;4.644;2023-08-31T15:33:04;3.63;;;1.00;;
69511;SDS011;70777;52.034;4.644;2023-08-31T15:35:31;2.55;;;0.70;;
69511;SDS011;70777;52.034;4.644;2023-08-31T15:37:57;1.77;;;0.87;;